createdAt,value
2019-03-22T00:00:36.038Z,15.20
2019-03-22T00:01:36.036Z,15.90
2019-03-22T00:02:36.031Z,14.20
2019-03-22T00:03:36.031Z,14.70
2019-03-22T00:04:36.061Z,14.40
2019-03-22T00:05:36.021Z,15.00
2019-03-22T00:06:36.015Z,14.10
2019-03-22T00:07:36.009Z,13.40
2019-03-22T00:08:36.008Z,12.80
2019-03-22T00:09:36.041Z,13.30
2019-03-22T00:10:36.003Z,13.00
2019-03-22T00:11:35.992Z,12.70
2019-03-22T00:12:36.029Z,13.80
2019-03-22T00:13:35.993Z,13.40
2019-03-22T00:14:37.170Z,14.20
2019-03-22T00:15:35.980Z,13.70
2019-03-22T00:16:35.968Z,13.40
2019-03-22T00:17:35.969Z,13.00
2019-03-22T00:18:36.006Z,14.00
2019-03-22T00:19:35.963Z,14.60
2019-03-22T00:20:35.964Z,12.70
2019-03-22T00:21:35.956Z,13.10
2019-03-22T00:22:35.951Z,14.20
2019-03-22T00:23:35.985Z,13.50
2019-03-22T00:24:35.980Z,13.70
2019-03-22T00:25:35.942Z,14.30
2019-03-22T00:26:35.933Z,14.20
2019-03-22T00:27:35.926Z,13.50
2019-03-22T00:28:35.936Z,14.40
2019-03-22T00:29:35.958Z,13.50
2019-03-22T00:30:35.916Z,13.00
2019-03-22T00:31:35.914Z,14.00
2019-03-22T00:32:35.910Z,14.10
2019-03-22T00:33:35.907Z,14.30
2019-03-22T00:34:35.933Z,13.70
2019-03-22T00:35:35.929Z,13.70
2019-03-22T00:36:35.887Z,14.60
2019-03-22T00:37:35.892Z,14.40
2019-03-22T00:38:35.890Z,14.50
2019-03-22T00:39:35.905Z,14.50
2019-03-22T00:40:35.877Z,15.00
2019-03-22T00:41:35.903Z,14.60
2019-03-22T00:42:35.864Z,15.20
2019-03-22T00:43:35.864Z,15.10
2019-03-22T00:44:35.888Z,15.00
2019-03-22T00:45:35.853Z,15.20
2019-03-22T00:46:35.844Z,15.00
2019-03-22T00:47:35.887Z,14.70
2019-03-22T00:48:35.841Z,16.20
2019-03-22T00:49:35.870Z,16.20
2019-03-22T00:50:35.833Z,16.60
2019-03-22T00:51:35.827Z,15.90
2019-03-22T00:52:35.821Z,15.40
2019-03-22T00:53:35.825Z,15.60
2019-03-22T00:54:35.820Z,15.70
2019-03-22T00:55:35.851Z,15.10
2019-03-22T00:56:35.808Z,15.30
2019-03-22T00:57:35.800Z,15.20
2019-03-22T00:58:35.793Z,15.40
2019-03-22T00:59:35.794Z,15.60
2019-03-22T01:00:35.847Z,15.40
2019-03-22T01:01:35.782Z,15.50
2019-03-22T01:02:35.777Z,15.30
2019-03-22T01:03:35.774Z,15.60
2019-03-22T01:04:35.773Z,15.70
2019-03-22T01:05:35.801Z,15.50
2019-03-22T01:06:35.758Z,15.60
2019-03-22T01:07:35.755Z,14.40
2019-03-22T01:08:35.755Z,15.00
2019-03-22T01:09:35.749Z,16.40
2019-03-22T01:10:35.780Z,15.40
2019-03-22T01:11:35.741Z,15.50
2019-03-22T01:12:35.736Z,15.70
2019-03-22T01:13:35.742Z,15.30
2019-03-22T01:14:35.730Z,15.00
2019-03-22T01:15:35.762Z,15.10
2019-03-22T01:16:35.713Z,15.40
2019-03-22T01:17:35.716Z,15.20
2019-03-22T01:18:35.710Z,15.10
2019-03-22T01:19:35.704Z,14.20
2019-03-22T01:20:35.738Z,14.00
2019-03-22T01:21:35.697Z,14.90
2019-03-22T01:22:35.693Z,15.10
2019-03-22T01:23:35.686Z,16.00
2019-03-22T01:24:35.681Z,14.70
2019-03-22T01:25:35.706Z,15.90
2019-03-22T01:26:35.672Z,15.10
2019-03-22T01:27:40.342Z,15.80
2019-03-22T01:28:35.666Z,15.20
2019-03-22T01:29:35.656Z,15.00
2019-03-22T01:30:35.661Z,15.30
2019-03-22T01:31:35.690Z,15.70
2019-03-22T01:32:35.671Z,14.10
2019-03-22T01:33:35.641Z,15.30
2019-03-22T01:34:35.646Z,16.20
2019-03-22T01:35:35.675Z,16.10
2019-03-22T01:36:35.630Z,16.70
2019-03-22T01:37:35.627Z,17.40
2019-03-22T01:38:35.628Z,15.50
2019-03-22T01:39:35.611Z,16.10
2019-03-22T01:40:35.633Z,16.30
2019-03-22T01:41:35.642Z,17.70
2019-03-22T01:42:35.603Z,17.60
2019-03-22T01:43:35.598Z,16.90
2019-03-22T01:44:35.598Z,16.90
2019-03-22T01:45:35.627Z,17.50
2019-03-22T01:46:35.582Z,17.10
2019-03-22T01:47:35.578Z,16.30
2019-03-22T01:48:35.570Z,15.90
2019-03-22T01:49:35.574Z,16.00
2019-03-22T01:50:35.602Z,16.90
2019-03-22T01:51:35.559Z,17.10
2019-03-22T01:52:35.563Z,16.30
2019-03-22T01:53:35.547Z,17.10
2019-03-22T01:54:35.543Z,16.40
2019-03-22T01:55:35.575Z,17.10
2019-03-22T01:56:35.570Z,17.00
2019-03-22T01:57:35.534Z,16.00
2019-03-22T01:58:35.527Z,16.70
2019-03-22T01:59:35.525Z,15.70
2019-03-22T02:00:35.518Z,15.90
2019-03-22T02:01:35.511Z,16.40
2019-03-22T02:02:35.544Z,16.50
2019-03-22T02:03:35.503Z,17.30
2019-03-22T02:04:35.501Z,18.10
2019-03-22T02:05:35.497Z,17.60
2019-03-22T02:06:35.529Z,17.30
2019-03-22T02:07:35.483Z,17.30
2019-03-22T02:08:35.481Z,17.90
2019-03-22T02:09:35.476Z,17.70
2019-03-22T02:10:35.473Z,18.40
2019-03-22T02:11:35.498Z,18.80
2019-03-22T02:12:35.465Z,18.00
2019-03-22T02:13:35.463Z,18.60
2019-03-22T02:14:35.455Z,17.40
2019-03-22T02:15:35.444Z,18.10
2019-03-22T02:16:35.480Z,18.70
2019-03-22T02:17:35.437Z,17.70
2019-03-22T02:18:35.432Z,18.10
2019-03-22T02:19:35.430Z,17.90
2019-03-22T02:20:35.425Z,17.70
2019-03-22T02:21:35.448Z,18.30
2019-03-22T02:22:35.452Z,18.10
2019-03-22T02:23:35.448Z,17.80
2019-03-22T02:24:35.404Z,17.70
2019-03-22T02:25:35.399Z,17.90
2019-03-22T02:26:35.431Z,18.60
2019-03-22T02:27:35.388Z,18.10
2019-03-22T02:28:35.381Z,18.00
2019-03-22T02:29:35.380Z,18.10
2019-03-22T02:30:35.378Z,18.00
2019-03-22T02:31:35.415Z,16.80
2019-03-22T02:32:35.363Z,18.50
2019-03-22T02:33:35.401Z,18.00
2019-03-22T02:34:35.361Z,18.70
2019-03-22T02:35:35.357Z,18.60
2019-03-22T02:36:35.378Z,17.80
2019-03-22T02:37:35.346Z,18.30
2019-03-22T02:38:35.336Z,18.60
2019-03-22T02:39:35.422Z,18.30
2019-03-22T02:40:35.352Z,18.80
2019-03-22T02:41:35.360Z,18.90
2019-03-22T02:42:35.327Z,19.60
2019-03-22T02:43:35.313Z,20.00
2019-03-22T02:44:35.308Z,21.00
2019-03-22T02:45:35.308Z,19.60
2019-03-22T02:46:35.331Z,19.70
2019-03-22T02:47:35.324Z,19.10
2019-03-22T02:48:35.293Z,19.90
2019-03-22T02:49:35.284Z,19.80
2019-03-22T02:50:35.289Z,20.10
2019-03-22T02:51:35.305Z,20.10
2019-03-22T02:52:35.273Z,20.00
2019-03-22T02:53:35.319Z,18.80
2019-03-22T02:54:35.259Z,16.70
2019-03-22T02:55:35.257Z,17.70
2019-03-22T02:56:35.296Z,19.30
2019-03-22T02:57:35.241Z,18.00
2019-03-22T02:58:35.247Z,18.70
2019-03-22T02:59:35.275Z,19.50
2019-03-22T03:00:35.243Z,19.30
2019-03-22T03:01:35.260Z,19.30
2019-03-22T03:02:35.221Z,18.60
2019-03-22T03:03:35.220Z,19.30
2019-03-22T03:04:35.212Z,18.80
2019-03-22T03:05:35.211Z,20.20
2019-03-22T03:06:35.230Z,20.70
2019-03-22T03:07:35.234Z,22.00
2019-03-22T03:08:35.197Z,20.10
2019-03-22T03:09:35.191Z,19.20
2019-03-22T03:10:35.186Z,19.90
2019-03-22T03:11:35.222Z,19.60
2019-03-22T03:12:35.180Z,20.10
2019-03-22T03:13:35.171Z,21.40
2019-03-22T03:14:35.159Z,20.90
2019-03-22T03:15:35.167Z,20.80
2019-03-22T03:16:35.214Z,20.10
2019-03-22T03:17:35.185Z,19.70
2019-03-22T03:18:35.153Z,18.70
2019-03-22T03:19:35.144Z,17.80
2019-03-22T03:20:35.137Z,18.10
2019-03-22T03:21:35.160Z,17.70
2019-03-22T03:22:35.126Z,17.80
2019-03-22T03:23:35.169Z,18.70
2019-03-22T03:24:35.128Z,19.80
2019-03-22T03:25:35.128Z,18.60
2019-03-22T03:26:35.134Z,18.60
2019-03-22T03:27:35.095Z,19.00
2019-03-22T03:28:37.204Z,19.40
2019-03-22T03:29:35.134Z,20.30
2019-03-22T03:30:35.082Z,20.90
2019-03-22T03:31:35.088Z,19.40
2019-03-22T03:32:35.077Z,20.60
2019-03-22T03:33:35.106Z,19.20
2019-03-22T03:34:35.071Z,19.70
2019-03-22T03:35:35.066Z,20.00
2019-03-22T03:36:35.185Z,20.10
2019-03-22T03:37:35.051Z,19.60
2019-03-22T03:38:35.043Z,20.20
2019-03-22T03:39:35.086Z,20.50
2019-03-22T03:40:35.044Z,19.50
2019-03-22T03:41:35.034Z,20.50
2019-03-22T03:42:35.067Z,21.70
2019-03-22T03:43:35.014Z,21.80
2019-03-22T03:44:35.023Z,21.20
2019-03-22T03:45:35.012Z,21.10
2019-03-22T03:46:35.011Z,22.40
2019-03-22T03:47:35.045Z,20.10
2019-03-22T03:48:35.002Z,20.60
2019-03-22T03:49:35.007Z,19.90
2019-03-22T03:50:34.988Z,19.50
2019-03-22T03:51:34.988Z,20.00
2019-03-22T03:52:35.021Z,20.60
2019-03-22T03:53:34.974Z,20.70
2019-03-22T03:54:34.971Z,20.40
2019-03-22T03:55:34.971Z,19.80
2019-03-22T03:56:34.959Z,19.60
2019-03-22T03:57:34.984Z,20.50
2019-03-22T03:58:34.983Z,20.20
2019-03-22T03:59:34.939Z,23.10
2019-03-22T04:00:34.937Z,22.20
2019-03-22T04:01:34.933Z,22.10
2019-03-22T04:02:34.959Z,23.00
2019-03-22T04:03:34.922Z,23.00
2019-03-22T04:04:34.961Z,22.30
2019-03-22T04:05:34.915Z,22.10
2019-03-22T04:06:34.922Z,23.00
2019-03-22T04:07:34.941Z,22.80
2019-03-22T04:08:34.896Z,21.60
2019-03-22T04:09:34.898Z,20.80
2019-03-22T04:10:34.938Z,20.70
2019-03-22T04:11:34.882Z,20.90
2019-03-22T04:12:34.902Z,21.80
2019-03-22T04:13:34.875Z,21.20
2019-03-22T04:14:34.871Z,20.90
2019-03-22T04:15:34.867Z,21.00
2019-03-22T04:16:34.895Z,20.90
2019-03-22T04:17:34.874Z,20.80
2019-03-22T04:18:34.853Z,19.50
2019-03-22T04:19:34.838Z,20.20
2019-03-22T04:20:34.853Z,20.80
2019-03-22T04:21:34.831Z,20.10
2019-03-22T04:22:36.377Z,21.50
2019-03-22T04:23:34.934Z,21.60
2019-03-22T04:24:34.820Z,21.60
2019-03-22T04:25:34.817Z,21.60
2019-03-22T04:26:34.816Z,21.60
2019-03-22T04:27:34.802Z,21.00
2019-03-22T04:28:34.874Z,21.00
2019-03-22T04:29:34.795Z,20.30
2019-03-22T04:30:34.788Z,20.60
2019-03-22T04:31:34.781Z,21.00
2019-03-22T04:32:34.776Z,20.30
2019-03-22T04:33:34.842Z,20.90
2019-03-22T04:34:34.804Z,20.70
2019-03-22T04:35:34.764Z,21.80
2019-03-22T04:36:34.764Z,26.00
2019-03-22T04:37:34.747Z,27.70
2019-03-22T04:38:34.776Z,29.10
2019-03-22T04:39:34.749Z,38.10
2019-03-22T04:40:34.778Z,31.50
2019-03-22T04:41:34.731Z,24.80
2019-03-22T04:42:34.731Z,24.50
2019-03-22T04:43:34.752Z,23.20
2019-03-22T04:44:34.714Z,23.10
2019-03-22T04:45:34.717Z,23.70
2019-03-22T04:46:34.750Z,23.80
2019-03-22T04:47:34.704Z,23.00
2019-03-22T04:48:34.726Z,22.90
2019-03-22T04:49:34.693Z,22.00
2019-03-22T04:50:34.691Z,22.60
2019-03-22T04:51:34.689Z,21.50
2019-03-22T04:52:34.717Z,21.10
2019-03-22T04:53:34.703Z,21.20
2019-03-22T04:54:34.664Z,21.80
2019-03-22T04:55:34.662Z,21.40
2019-03-22T04:56:34.659Z,21.40
2019-03-22T04:57:34.663Z,20.50
2019-03-22T04:58:34.687Z,19.90
2019-03-22T04:59:34.646Z,20.00
2019-03-22T05:00:34.646Z,20.70
2019-03-22T05:01:34.633Z,20.30
2019-03-22T05:02:34.632Z,20.20
2019-03-22T05:03:34.655Z,21.00
2019-03-22T05:04:34.617Z,18.80
2019-03-22T05:05:34.615Z,20.60
2019-03-22T05:06:34.602Z,20.00
2019-03-22T05:07:34.598Z,21.50
2019-03-22T05:08:34.631Z,20.90
2019-03-22T05:09:34.647Z,20.60
2019-03-22T05:10:34.590Z,21.30
2019-03-22T05:11:34.609Z,22.90
2019-03-22T05:12:34.579Z,23.70
2019-03-22T05:13:34.603Z,20.40
2019-03-22T05:14:34.568Z,20.70
2019-03-22T05:15:34.602Z,20.20
2019-03-22T05:16:34.558Z,22.10
2019-03-22T05:17:34.549Z,23.10
2019-03-22T05:18:34.574Z,21.80
2019-03-22T05:19:35.320Z,22.30
2019-03-22T05:20:34.542Z,21.90
2019-03-22T05:21:34.570Z,21.80
2019-03-22T05:22:34.526Z,21.80
2019-03-22T05:23:34.553Z,21.30
2019-03-22T05:24:34.520Z,21.30
2019-03-22T05:25:34.515Z,20.40
2019-03-22T05:26:34.507Z,21.00
2019-03-22T05:27:34.505Z,19.40
2019-03-22T05:28:34.502Z,20.50
2019-03-22T05:29:34.540Z,19.10
2019-03-22T05:30:35.314Z,20.10
2019-03-22T05:31:34.488Z,20.40
2019-03-22T05:32:34.489Z,19.70
2019-03-22T05:33:34.476Z,19.80
2019-03-22T05:34:34.503Z,19.80
2019-03-22T05:35:34.520Z,20.30
2019-03-22T05:36:34.462Z,20.00
2019-03-22T05:37:34.453Z,20.50
2019-03-22T05:38:34.448Z,20.70
2019-03-22T05:39:34.484Z,20.20
2019-03-22T05:40:34.442Z,20.50
2019-03-22T05:41:34.441Z,20.80
2019-03-22T05:42:34.432Z,20.40
2019-03-22T05:43:34.423Z,20.60
2019-03-22T05:44:34.454Z,20.60
2019-03-22T05:45:34.414Z,19.70
2019-03-22T05:46:34.412Z,21.00
2019-03-22T05:47:34.409Z,20.60
2019-03-22T05:48:34.417Z,19.20
2019-03-22T05:49:34.436Z,23.10
2019-03-22T05:50:34.400Z,33.60
2019-03-22T05:51:34.392Z,39.80
2019-03-22T05:52:34.379Z,32.20
2019-03-22T05:53:34.379Z,18.50
2019-03-22T05:54:34.418Z,17.10
2019-03-22T05:55:34.372Z,17.60
2019-03-22T05:56:34.359Z,17.90
2019-03-22T05:57:34.363Z,18.70
2019-03-22T05:58:34.360Z,18.80
2019-03-22T05:59:42.577Z,17.80
2019-03-22T06:00:34.353Z,17.10
2019-03-22T06:01:34.350Z,18.20
2019-03-22T06:02:34.343Z,15.80
2019-03-22T06:03:34.336Z,15.40
2019-03-22T06:04:34.368Z,16.60
2019-03-22T06:05:34.335Z,16.10
2019-03-22T06:06:34.320Z,17.00
2019-03-22T06:07:36.885Z,17.60
2019-03-22T06:08:34.307Z,17.10
2019-03-22T06:09:34.363Z,17.90
2019-03-22T06:10:34.465Z,17.90
2019-03-22T06:11:34.302Z,17.20
2019-03-22T06:12:34.291Z,16.30
2019-03-22T06:13:34.300Z,18.20
2019-03-22T06:14:34.333Z,16.40
2019-03-22T06:15:34.287Z,19.70
2019-03-22T06:16:34.281Z,18.20
2019-03-22T06:17:34.291Z,33.60
2019-03-22T06:18:34.278Z,25.30
2019-03-22T06:19:34.302Z,19.70
2019-03-22T06:20:34.309Z,20.00
2019-03-22T06:21:34.267Z,18.60
2019-03-22T06:22:34.266Z,18.50
2019-03-22T06:23:34.263Z,23.50
2019-03-22T06:24:34.291Z,17.70
2019-03-22T06:25:34.259Z,16.80
2019-03-22T06:26:34.251Z,20.90
2019-03-22T06:27:34.246Z,16.70
2019-03-22T06:28:34.245Z,21.00
2019-03-22T06:29:34.267Z,19.80
2019-03-22T06:30:34.274Z,18.40
2019-03-22T06:31:34.234Z,18.60
2019-03-22T06:32:34.233Z,18.80
2019-03-22T06:33:34.233Z,19.80
2019-03-22T06:34:34.241Z,17.50
2019-03-22T06:35:34.279Z,16.90
2019-03-22T06:36:34.231Z,22.90
2019-03-22T06:37:34.228Z,22.20
2019-03-22T06:38:34.214Z,23.50
2019-03-22T06:39:34.233Z,23.30
2019-03-22T06:40:34.270Z,20.70
2019-03-22T06:41:34.213Z,21.50
2019-03-22T06:42:34.207Z,20.50
2019-03-22T06:43:34.246Z,19.80
2019-03-22T06:44:34.208Z,20.20
2019-03-22T06:45:34.234Z,19.20
2019-03-22T06:46:34.239Z,19.90
2019-03-22T06:47:34.243Z,17.90
2019-03-22T06:48:34.210Z,22.80
2019-03-22T06:49:34.200Z,23.20
2019-03-22T06:50:34.231Z,21.20
2019-03-22T06:51:34.196Z,18.90
2019-03-22T06:52:34.193Z,17.80
2019-03-22T06:53:34.200Z,17.10
2019-03-22T06:54:34.196Z,16.00
2019-03-22T06:55:34.232Z,13.60
2019-03-22T06:56:34.195Z,13.90
2019-03-22T06:57:34.189Z,10.70
2019-03-22T06:58:34.192Z,11.30
2019-03-22T06:59:34.196Z,11.40
2019-03-22T07:00:34.236Z,11.60
2019-03-22T07:01:34.193Z,11.00
2019-03-22T07:02:34.198Z,11.80
2019-03-22T07:03:34.200Z,11.70
2019-03-22T07:04:34.202Z,12.00
2019-03-22T07:05:34.237Z,12.90
2019-03-22T07:06:34.200Z,12.90
2019-03-22T07:07:34.231Z,13.30
2019-03-22T07:08:34.200Z,12.30
2019-03-22T07:09:34.206Z,14.20
2019-03-22T07:10:34.245Z,14.10
2019-03-22T07:11:34.204Z,13.50
2019-03-22T07:12:34.207Z,13.80
2019-03-22T07:13:34.216Z,13.80
2019-03-22T07:14:34.213Z,13.70
2019-03-22T07:15:34.244Z,13.70
2019-03-22T07:16:34.223Z,14.30
2019-03-22T07:17:34.217Z,13.40
2019-03-22T07:18:34.220Z,14.20
2019-03-22T07:19:34.222Z,13.90
2019-03-22T07:20:34.219Z,14.00
2019-03-22T07:21:34.260Z,13.60
2019-03-22T07:22:34.229Z,14.20
2019-03-22T07:23:34.223Z,13.70
2019-03-22T07:24:34.228Z,13.50
2019-03-22T07:25:34.247Z,13.20
2019-03-22T07:26:34.276Z,12.90
2019-03-22T07:27:34.242Z,12.90
2019-03-22T07:28:34.253Z,13.00
2019-03-22T07:29:34.313Z,12.60
2019-03-22T07:30:34.245Z,13.10
2019-03-22T07:31:35.865Z,12.70
2019-03-22T07:32:34.255Z,12.00
2019-03-22T07:33:34.264Z,12.50
2019-03-22T07:34:34.264Z,12.80
2019-03-22T07:35:34.270Z,13.30
2019-03-22T07:36:34.309Z,13.30
2019-03-22T07:37:34.271Z,13.10
2019-03-22T07:38:34.283Z,13.40
2019-03-22T07:39:34.283Z,13.70
2019-03-22T07:40:34.296Z,12.50
2019-03-22T07:41:34.324Z,12.70
2019-03-22T07:42:34.292Z,13.30
2019-03-22T07:43:34.296Z,12.60
2019-03-22T07:44:34.305Z,13.00
2019-03-22T07:45:34.309Z,12.90
2019-03-22T07:46:34.343Z,13.60
2019-03-22T07:47:34.313Z,13.40
2019-03-22T07:48:34.320Z,13.20
2019-03-22T07:49:34.324Z,21.60
2019-03-22T07:50:34.327Z,13.30
2019-03-22T07:51:34.377Z,12.90
2019-03-22T07:52:34.335Z,13.50
2019-03-22T07:53:34.348Z,14.90
2019-03-22T07:54:34.347Z,13.70
2019-03-22T07:55:34.355Z,13.40
2019-03-22T07:56:34.392Z,13.30
2019-03-22T07:57:34.413Z,14.20
2019-03-22T07:58:34.378Z,13.90
2019-03-22T07:59:34.389Z,12.80
2019-03-22T08:00:34.380Z,13.00
2019-03-22T08:01:34.432Z,12.80
2019-03-22T08:02:34.397Z,13.90
2019-03-22T08:03:34.400Z,12.70
2019-03-22T08:04:34.410Z,13.20
2019-03-22T08:05:34.421Z,12.20
2019-03-22T08:06:34.465Z,12.60
2019-03-22T08:07:34.436Z,12.20
2019-03-22T08:08:34.440Z,12.60
2019-03-22T08:09:34.476Z,12.60
2019-03-22T08:10:34.534Z,13.30
2019-03-22T08:11:34.485Z,12.60
2019-03-22T08:12:34.525Z,12.90
2019-03-22T08:13:34.481Z,12.60
2019-03-22T08:14:34.489Z,13.20
2019-03-22T08:15:34.504Z,13.00
2019-03-22T08:16:34.498Z,13.00
2019-03-22T08:17:34.538Z,13.30
2019-03-22T08:18:34.558Z,14.00
2019-03-22T08:19:34.553Z,13.20
2019-03-22T08:20:34.533Z,13.70
2019-03-22T08:21:34.576Z,13.70
2019-03-22T08:22:34.551Z,13.60
2019-03-22T08:23:34.561Z,13.10
2019-03-22T08:24:34.568Z,12.90
2019-03-22T08:25:34.575Z,13.00
2019-03-22T08:26:34.626Z,13.40
2019-03-22T08:27:34.627Z,12.70
2019-03-22T08:28:34.607Z,13.00
2019-03-22T08:29:34.631Z,13.00
2019-03-22T08:30:42.868Z,13.60
2019-03-22T08:31:34.666Z,13.50
2019-03-22T08:32:34.659Z,12.60
2019-03-22T08:33:34.669Z,12.20
2019-03-22T08:34:34.657Z,12.70
2019-03-22T08:35:34.700Z,12.70
2019-03-22T08:36:34.756Z,12.80
2019-03-22T08:37:34.738Z,13.20
2019-03-22T08:38:34.710Z,13.30
2019-03-22T08:39:34.713Z,13.00
2019-03-22T08:40:34.750Z,13.10
2019-03-22T08:41:34.738Z,13.20
2019-03-22T08:42:34.786Z,13.30
2019-03-22T08:43:34.758Z,12.60
2019-03-22T08:44:34.770Z,12.80
2019-03-22T08:45:34.815Z,12.50
2019-03-22T08:46:34.793Z,12.90
2019-03-22T08:47:34.911Z,12.70
2019-03-22T08:48:34.815Z,13.30
2019-03-22T08:49:34.911Z,12.80
2019-03-22T08:50:34.996Z,12.70
2019-03-22T08:51:34.847Z,12.40
2019-03-22T08:52:34.919Z,12.70
2019-03-22T08:53:34.917Z,12.30
2019-03-22T08:54:37.947Z,13.00
2019-03-22T08:55:34.898Z,13.00
2019-03-22T08:56:36.226Z,12.60
2019-03-22T08:57:34.963Z,12.50
2019-03-22T08:58:34.951Z,12.80
2019-03-22T08:59:34.946Z,13.70
2019-03-22T09:00:39.447Z,13.50
2019-03-22T09:01:34.980Z,13.50
2019-03-22T09:02:35.011Z,14.20
2019-03-22T09:03:34.998Z,13.80
2019-03-22T09:04:35.006Z,13.30
2019-03-22T09:05:35.024Z,13.20
2019-03-22T09:06:35.069Z,12.90
2019-03-22T09:07:35.083Z,13.20
2019-03-22T09:08:35.099Z,13.20
2019-03-22T09:09:41.388Z,13.90
2019-03-22T09:10:35.184Z,13.70
2019-03-22T09:11:35.094Z,13.80
2019-03-22T09:12:35.139Z,13.00
2019-03-22T09:13:35.156Z,13.00
2019-03-22T09:14:35.140Z,12.90
2019-03-22T09:15:41.233Z,13.60
2019-03-22T09:16:35.156Z,13.80
2019-03-22T09:17:35.207Z,13.40
2019-03-22T09:18:35.178Z,13.60
2019-03-22T09:19:35.234Z,13.90
2019-03-22T09:20:35.205Z,13.90
2019-03-22T09:21:35.253Z,13.40
2019-03-22T09:22:35.272Z,13.90
2019-03-22T09:23:35.263Z,12.80
2019-03-22T09:24:39.359Z,13.80
2019-03-22T09:25:35.307Z,13.50
2019-03-22T09:26:47.161Z,13.30
2019-03-22T09:27:36.610Z,13.60
2019-03-22T09:28:35.330Z,13.20
2019-03-22T09:29:35.339Z,13.40
2019-03-22T09:30:35.406Z,13.10
2019-03-22T09:31:35.380Z,12.90
2019-03-22T09:32:35.423Z,13.10
2019-03-22T09:33:35.469Z,13.50
2019-03-22T09:34:35.372Z,13.10
2019-03-22T09:35:35.419Z,12.90
2019-03-22T09:36:35.430Z,12.50
2019-03-22T09:37:35.448Z,12.70
2019-03-22T09:38:35.480Z,13.20
2019-03-22T09:39:35.485Z,12.50
2019-03-22T09:40:35.456Z,12.40
2019-03-22T09:41:35.468Z,13.00
2019-03-22T09:42:35.494Z,13.00
2019-03-22T09:43:35.532Z,12.70
2019-03-22T09:44:43.427Z,12.50
2019-03-22T09:45:35.528Z,12.20
2019-03-22T09:46:35.564Z,12.60
2019-03-22T09:47:35.572Z,13.20
2019-03-22T09:48:35.626Z,12.40
2019-03-22T09:49:35.617Z,13.40
2019-03-22T09:50:35.725Z,12.20
2019-03-22T09:51:35.660Z,13.10
2019-03-22T09:52:35.706Z,12.80
2019-03-22T09:53:35.715Z,12.70
2019-03-22T09:54:35.739Z,11.90
2019-03-22T09:55:35.697Z,12.40
2019-03-22T09:56:46.444Z,12.50
2019-03-22T09:57:35.733Z,12.10
2019-03-22T09:58:36.510Z,12.00
2019-03-22T09:59:35.802Z,12.80
2019-03-22T10:00:35.797Z,12.20
2019-03-22T10:01:35.824Z,12.20
2019-03-22T10:02:35.894Z,12.10
2019-03-22T10:03:35.869Z,12.10
2019-03-22T10:04:35.906Z,11.90
2019-03-22T10:05:35.940Z,11.40
2019-03-22T10:06:35.965Z,11.30
2019-03-22T10:07:35.908Z,11.60
2019-03-22T10:08:35.999Z,11.50
2019-03-22T10:09:35.983Z,10.80
2019-03-22T10:10:36.019Z,11.00
2019-03-22T10:11:35.979Z,11.50
2019-03-22T10:12:36.001Z,11.60
2019-03-22T10:13:36.073Z,11.10
2019-03-22T10:14:36.072Z,10.80
2019-03-22T10:15:36.113Z,11.10
2019-03-22T10:16:36.113Z,10.80
2019-03-22T10:17:36.130Z,10.70
2019-03-22T10:18:37.011Z,11.30
2019-03-22T10:19:36.183Z,10.80
2019-03-22T10:20:36.256Z,11.30
2019-03-22T10:21:36.181Z,10.60
2019-03-22T10:22:36.232Z,11.20
2019-03-22T10:23:36.266Z,10.50
2019-03-22T10:24:36.284Z,10.30
2019-03-22T10:25:36.239Z,10.40
2019-03-22T10:26:36.311Z,10.30
2019-03-22T10:27:36.311Z,10.30
2019-03-22T10:28:36.294Z,10.20
2019-03-22T10:29:36.362Z,10.30
2019-03-22T10:30:36.342Z,10.80
2019-03-22T10:31:37.652Z,10.80
2019-03-22T10:32:36.471Z,10.30
2019-03-22T10:33:36.409Z,10.20
2019-03-22T10:34:39.572Z,10.20
2019-03-22T10:35:36.422Z,10.10
2019-03-22T10:36:36.494Z,10.40
2019-03-22T10:37:36.448Z,9.70
2019-03-22T10:38:36.518Z,9.10
2019-03-22T10:39:36.542Z,9.80
2019-03-22T10:40:36.581Z,9.80
2019-03-22T10:41:36.580Z,9.60
2019-03-22T10:42:36.553Z,10.30
2019-03-22T10:43:36.601Z,9.90
2019-03-22T10:44:39.298Z,10.20
2019-03-22T10:45:36.638Z,10.00
2019-03-22T10:46:36.607Z,9.50
2019-03-22T10:47:36.635Z,10.20
2019-03-22T10:48:36.672Z,10.20
2019-03-22T10:49:36.699Z,9.90
2019-03-22T10:50:36.732Z,9.60
2019-03-22T10:51:36.700Z,10.00
2019-03-22T10:52:36.762Z,9.90
2019-03-22T10:53:36.729Z,9.70
2019-03-22T10:54:36.779Z,9.30
2019-03-22T10:55:36.804Z,9.80
2019-03-22T10:56:36.788Z,10.10
2019-03-22T10:57:40.065Z,9.80
2019-03-22T10:58:36.830Z,9.90
2019-03-22T10:59:36.987Z,9.40
2019-03-22T11:00:36.861Z,9.60
2019-03-22T11:01:48.293Z,9.30
2019-03-22T11:02:36.919Z,9.00
2019-03-22T11:03:37.044Z,9.80
2019-03-22T11:04:36.933Z,9.60
2019-03-22T11:05:36.985Z,9.30
2019-03-22T11:06:36.969Z,9.00
2019-03-22T11:07:36.986Z,9.90
2019-03-22T11:08:37.007Z,9.60
2019-03-22T11:09:37.060Z,9.60
2019-03-22T11:10:37.154Z,9.00
2019-03-22T11:11:37.087Z,9.00
2019-03-22T11:12:37.081Z,10.10
2019-03-22T11:13:37.101Z,9.30
2019-03-22T11:14:37.158Z,9.40
2019-03-22T11:15:37.177Z,9.10
2019-03-22T11:16:37.151Z,9.70
2019-03-22T11:17:37.166Z,9.70
2019-03-22T11:18:37.780Z,8.70
2019-03-22T11:19:37.211Z,8.60
2019-03-22T11:20:37.254Z,9.10
2019-03-22T11:21:37.240Z,9.10
2019-03-22T11:22:37.258Z,8.90
2019-03-22T11:23:37.281Z,8.40
2019-03-22T11:24:37.295Z,8.40
2019-03-22T11:25:37.345Z,8.00
2019-03-22T11:26:37.368Z,8.00
2019-03-22T11:27:37.355Z,7.90
2019-03-22T11:28:37.366Z,7.40
2019-03-22T11:29:37.382Z,8.00
2019-03-22T11:30:37.440Z,8.60
2019-03-22T11:31:40.052Z,8.60
2019-03-22T11:32:37.443Z,8.40
2019-03-22T11:33:37.459Z,8.30
2019-03-22T11:34:37.479Z,7.70
2019-03-22T11:35:37.524Z,8.50
2019-03-22T11:36:37.548Z,7.70
2019-03-22T11:37:37.527Z,8.10
2019-03-22T11:38:37.544Z,7.40
2019-03-22T11:39:37.564Z,7.80
2019-03-22T11:40:37.627Z,7.80
2019-03-22T11:41:37.602Z,7.80
2019-03-22T11:42:37.617Z,7.90
2019-03-22T11:43:37.618Z,7.40
2019-03-22T11:44:37.647Z,7.70
2019-03-22T11:45:37.702Z,7.80
2019-03-22T11:46:37.681Z,8.10
2019-03-22T11:47:37.693Z,8.40
2019-03-22T11:48:37.722Z,7.40
2019-03-22T11:49:37.733Z,7.10
2019-03-22T11:50:37.785Z,7.80
2019-03-22T11:51:37.767Z,7.60
2019-03-22T11:52:37.785Z,7.60
2019-03-22T11:53:37.835Z,7.30
2019-03-22T11:54:37.819Z,7.70
2019-03-22T11:55:37.878Z,7.70
2019-03-22T11:56:37.866Z,7.60
2019-03-22T11:57:37.878Z,7.70
2019-03-22T11:58:37.930Z,7.40
2019-03-22T11:59:37.943Z,7.80
2019-03-22T12:00:37.958Z,7.40
2019-03-22T12:01:37.943Z,7.50
2019-03-22T12:02:37.966Z,7.20
2019-03-22T12:03:40.368Z,7.30
2019-03-22T12:04:38.028Z,7.60
2019-03-22T12:05:40.622Z,8.00
2019-03-22T12:06:38.038Z,7.40
2019-03-22T12:07:38.065Z,8.00
2019-03-22T12:08:38.102Z,7.80
2019-03-22T12:09:38.087Z,7.50
2019-03-22T12:10:38.197Z,7.90
2019-03-22T12:11:38.136Z,7.90
2019-03-22T12:12:38.138Z,8.10
2019-03-22T12:13:38.200Z,7.60
2019-03-22T12:14:38.174Z,7.60
2019-03-22T12:15:38.232Z,7.90
2019-03-22T12:16:38.211Z,7.70
2019-03-22T12:17:38.227Z,7.80
2019-03-22T12:18:38.243Z,8.20
2019-03-22T12:19:38.261Z,8.40
2019-03-22T12:20:38.317Z,8.10
2019-03-22T12:21:38.286Z,7.90
2019-03-22T12:22:38.582Z,8.40
2019-03-22T12:23:38.333Z,8.50
2019-03-22T12:24:38.345Z,8.10
2019-03-22T12:25:38.400Z,9.60
2019-03-22T12:26:38.412Z,8.80
2019-03-22T12:27:38.390Z,9.10
2019-03-22T12:28:38.415Z,8.80
2019-03-22T12:29:38.466Z,8.80
2019-03-22T12:30:38.487Z,9.00
2019-03-22T12:31:38.502Z,9.20
2019-03-22T12:32:38.518Z,8.90
2019-03-22T12:33:38.500Z,9.00
2019-03-22T12:34:38.518Z,8.80
2019-03-22T12:35:38.530Z,9.90
2019-03-22T12:36:38.548Z,9.10
2019-03-22T12:37:38.608Z,9.60
2019-03-22T12:38:38.627Z,9.20
2019-03-22T12:39:38.584Z,9.00
2019-03-22T12:40:38.633Z,9.20
2019-03-22T12:41:38.680Z,9.80
2019-03-22T12:42:38.663Z,9.20
2019-03-22T12:43:38.681Z,9.30
2019-03-22T12:44:38.732Z,9.30
2019-03-22T12:45:38.718Z,9.40
2019-03-22T12:46:38.732Z,9.70
2019-03-22T12:47:38.777Z,9.20
2019-03-22T12:48:38.780Z,9.30
2019-03-22T12:49:38.818Z,10.40
2019-03-22T12:50:38.840Z,10.50
2019-03-22T12:51:38.851Z,10.60
2019-03-22T12:52:38.831Z,10.20
2019-03-22T12:53:38.852Z,9.70
2019-03-22T12:54:38.867Z,10.20
2019-03-22T12:55:38.888Z,9.50
2019-03-22T12:56:38.939Z,9.30